Time;durP1;ratioP1;P1;durP2;ratioP2;P2;SDS_P1;SDS_P2;PMS_P1;PMS_P2;Temp;Humidity;BMP_temperature;BMP_pressure;BME280_temperature;BME280_humidity;BME280_pressure;Samples;Min_cycle;Max_cycle;Signal;HPM_P1;HPM_P2
2022/01/19 00:02:31;;;;;;;3.20;2.65;;;;;;;;;;8345364;28;20044;-65
2022/01/19 00:06:31;;;;;;;2.60;2.25;;;;;;;;;;8345516;28;20126;-65
2022/01/19 00:10:31;;;;;;;3.20;2.25;;;;;;;;;;8346623;28;20028;-65
2022/01/19 00:14:31;;;;;;;5.07;3.03;;;;;;;;;;8346389;28;20427;-65
2022/01/19 00:18:32;;;;;;;3.75;2.97;;;;;;;;;;8344286;28;20036;-65
2022/01/19 00:22:33;;;;;;;3.60;2.80;;;;;;;;;;8347315;28;20032;-65
2022/01/19 00:26:33;;;;;;;3.33;3.03;;;;;;;;;;8346207;28;20139;-66
2022/01/19 00:30:33;;;;;;;4.53;3.03;;;;;;;;;;8346385;28;20024;-65
2022/01/19 00:34:33;;;;;;;8.27;3.85;;;;;;;;;;8343588;28;20040;-65
2022/01/19 00:38:33;;;;;;;4.25;3.00;;;;;;;;;;8347109;28;20432;-65
2022/01/19 00:42:33;;;;;;;4.35;3.00;;;;;;;;;;8345797;28;20990;-65
2022/01/19 00:46:34;;;;;;;5.43;3.60;;;;;;;;;;8345233;28;20743;-65
2022/01/19 00:50:34;;;;;;;4.43;3.47;;;;;;;;;;8346430;28;20071;-65
2022/01/19 00:54:34;;;;;;;5.90;4.28;;;;;;;;;;8345864;28;20110;-65
2022/01/19 00:58:34;;;;;;;4.67;3.83;;;;;;;;;;8345164;28;20512;-65
2022/01/19 01:02:35;;;;;;;5.97;4.10;;;;;;;;;;8344908;28;20287;-65
2022/01/19 01:06:35;;;;;;;6.50;4.25;;;;;;;;;;8344702;28;20398;-65
2022/01/19 01:10:42;;;;;;;6.90;5.07;;;;;;;;;;8346467;28;20029;-65
2022/01/19 01:19:02;;;;;;;9.00;5.40;;;;;;;;;;8344842;28;20044;-65
2022/01/19 01:23:03;;;;;;;9.30;6.07;;;;;;;;;;8340882;28;20028;-65
2022/01/19 01:27:03;;;;;;;8.38;5.57;;;;;;;;;;8340653;28;20060;-65
2022/01/19 01:31:04;;;;;;;9.10;5.55;;;;;;;;;;8342056;28;20140;-65
2022/01/19 01:35:05;;;;;;;8.25;5.70;;;;;;;;;;8346124;28;20025;-65
2022/01/19 01:39:05;;;;;;;8.70;5.60;;;;;;;;;;8350593;28;20462;-65
2022/01/19 01:43:06;;;;;;;7.00;5.40;;;;;;;;;;8349400;28;20596;-65
2022/01/19 01:47:07;;;;;;;5.28;4.47;;;;;;;;;;8349839;28;20033;-65
2022/01/19 01:55:27;;;;;;;5.10;4.38;;;;;;;;;;8352299;28;20039;-65
2022/01/19 01:59:28;;;;;;;5.13;3.97;;;;;;;;;;8350106;28;20029;-65
2022/01/19 02:03:28;;;;;;;6.60;4.68;;;;;;;;;;8348069;28;20329;-65
2022/01/19 02:07:43;;;;;;;4.00;3.60;;;;;;;;;;8350930;28;20021;-65
2022/01/19 02:15:58;;;;;;;5.60;4.15;;;;;;;;;;8349329;28;20044;-65
2022/01/19 02:24:30;;;;;;;4.93;4.13;;;;;;;;;;8350099;28;20389;-65
2022/01/19 02:41:18;;;;;;;10.35;5.70;;;;;;;;;;8349241;28;20021;-65
2022/01/19 02:49:21;;;;;;;7.15;5.15;;;;;;;;;;8347935;28;20371;-65
2022/01/19 02:53:21;;;;;;;8.07;4.90;;;;;;;;;;8348584;28;20531;-65
2022/01/19 02:57:25;;;;;;;7.85;5.25;;;;;;;;;;8348538;28;20057;-65
2022/01/19 03:10:05;;;;;;;9.95;5.80;;;;;;;;;;8328363;28;20036;-65
2022/01/19 03:14:08;;;;;;;11.48;6.10;;;;;;;;;;8348403;28;20147;-65
2022/01/19 03:18:08;;;;;;;10.68;5.68;;;;;;;;;;8347018;28;20474;-65
2022/01/19 03:22:08;;;;;;;9.90;5.43;;;;;;;;;;8347027;28;20527;-65
2022/01/19 03:26:09;;;;;;;10.18;5.05;;;;;;;;;;8347428;28;20476;-64
2022/01/19 03:30:09;;;;;;;8.80;5.47;;;;;;;;;;8346855;28;20998;-65
2022/01/19 03:34:11;;;;;;;10.68;6.22;;;;;;;;;;8346872;28;21222;-65
2022/01/19 03:38:12;;;;;;;10.18;5.05;;;;;;;;;;8346237;28;20556;-65
2022/01/19 03:42:12;;;;;;;5.00;4.05;;;;;;;;;;8346298;28;20114;-65
2022/01/19 03:46:14;;;;;;;6.75;4.05;;;;;;;;;;8347372;28;20090;-65
2022/01/19 03:50:14;;;;;;;5.53;4.03;;;;;;;;;;8347432;28;20430;-65
2022/01/19 03:54:15;;;;;;;6.15;4.63;;;;;;;;;;8347895;28;20017;-65
2022/01/19 03:58:15;;;;;;;10.63;4.93;;;;;;;;;;8344032;28;20033;-65
2022/01/19 04:02:15;;;;;;;7.65;4.95;;;;;;;;;;8347752;28;20099;-65
2022/01/19 04:06:24;;;;;;;6.30;4.28;;;;;;;;;;8345051;28;20032;-65
2022/01/19 04:10:24;;;;;;;5.10;3.88;;;;;;;;;;8347827;28;20029;-65
2022/01/19 04:14:25;;;;;;;7.45;4.70;;;;;;;;;;8346309;28;20025;-65
2022/01/19 04:18:25;;;;;;;7.18;4.05;;;;;;;;;;8343062;28;20582;-65
2022/01/19 04:22:26;;;;;;;6.15;4.60;;;;;;;;;;8346894;28;20063;-65
2022/01/19 04:26:26;;;;;;;18.80;8.97;;;;;;;;;;8344262;28;20040;-65
2022/01/19 04:30:28;;;;;;;17.05;7.78;;;;;;;;;;8346311;28;21345;-65
2022/01/19 04:34:28;;;;;;;13.45;6.85;;;;;;;;;;8344946;28;20037;-65
2022/01/19 04:47:44;;;;;;;8.38;5.22;;;;;;;;;;8345690;28;20136;-65
2022/01/19 05:04:51;;;;;;;7.15;4.20;;;;;;;;;;8346332;28;20110;-65
2022/01/19 05:17:13;;;;;;;6.22;4.10;;;;;;;;;;8345412;28;20043;-65
2022/01/19 05:21:14;;;;;;;6.50;4.35;;;;;;;;;;8343799;28;20024;-65
2022/01/19 05:25:14;;;;;;;5.68;4.28;;;;;;;;;;8343981;28;20111;-65
2022/01/19 05:29:14;;;;;;;6.03;4.13;;;;;;;;;;8344888;28;20063;-65
2022/01/19 05:33:15;;;;;;;10.40;4.95;;;;;;;;;;8343389;28;20120;-65
2022/01/19 05:37:15;;;;;;;8.32;5.00;;;;;;;;;;8346724;28;20020;-65
2022/01/19 05:41:15;;;;;;;8.85;5.20;;;;;;;;;;8344384;28;20772;-65
2022/01/19 05:45:16;;;;;;;7.28;4.22;;;;;;;;;;8344362;28;20142;-65
2022/01/19 05:49:16;;;;;;;6.68;4.95;;;;;;;;;;8344792;28;20147;-65
2022/01/19 05:53:16;;;;;;;7.28;4.43;;;;;;;;;;8345225;28;20033;-65
2022/01/19 05:57:16;;;;;;;8.30;5.33;;;;;;;;;;8342967;28;20094;-65
2022/01/19 06:01:17;;;;;;;8.43;5.68;;;;;;;;;;8345131;28;20299;-65
2022/01/19 06:05:17;;;;;;;7.30;5.28;;;;;;;;;;8344420;28;20029;-65
2022/01/19 06:09:34;;;;;;;6.78;4.57;;;;;;;;;;8344692;28;20102;-65
2022/01/19 06:13:35;;;;;;;6.70;5.05;;;;;;;;;;8345000;28;20059;-64
2022/01/19 06:17:35;;;;;;;7.47;5.35;;;;;;;;;;8343162;28;20044;-65
2022/01/19 06:21:35;;;;;;;9.60;5.68;;;;;;;;;;8344205;28;20482;-64
2022/01/19 06:25:36;;;;;;;22.48;10.05;;;;;;;;;;8349992;28;20025;-65
2022/01/19 06:29:36;;;;;;;23.20;9.77;;;;;;;;;;8349636;28;20566;-64
2022/01/19 06:33:36;;;;;;;15.75;7.97;;;;;;;;;;8344280;28;20062;-65
2022/01/19 06:37:36;;;;;;;14.20;6.93;;;;;;;;;;8347985;28;20478;-64
2022/01/19 06:41:36;;;;;;;8.65;5.72;;;;;;;;;;8349720;28;20089;-64
2022/01/19 06:45:37;;;;;;;8.27;5.50;;;;;;;;;;8355490;28;20033;-64
2022/01/19 06:49:37;;;;;;;9.93;5.35;;;;;;;;;;8348980;28;20381;-64
2022/01/19 06:53:37;;;;;;;9.55;5.82;;;;;;;;;;8348736;28;20944;-64
2022/01/19 06:57:37;;;;;;;8.27;5.45;;;;;;;;;;8348075;28;20059;-64
2022/01/19 07:01:37;;;;;;;8.85;5.47;;;;;;;;;;8346914;28;20131;-64
2022/01/19 07:05:39;;;;;;;11.00;6.20;;;;;;;;;;8347955;28;20257;-64
2022/01/19 07:09:39;;;;;;;6.72;5.20;;;;;;;;;;8348370;28;20041;-64
2022/01/19 07:13:39;;;;;;;11.57;6.20;;;;;;;;;;8347380;28;20072;-64
2022/01/19 07:17:40;;;;;;;7.40;5.30;;;;;;;;;;8344933;28;20562;-64
2022/01/19 07:21:40;;;;;;;8.30;6.00;;;;;;;;;;8342781;28;20127;-64
2022/01/19 07:25:40;;;;;;;8.38;5.90;;;;;;;;;;8341795;28;20063;-65
2022/01/19 07:29:41;;;;;;;9.82;6.63;;;;;;;;;;8342893;28;20628;-64
2022/01/19 07:33:41;;;;;;;8.02;5.97;;;;;;;;;;8340992;28;20556;-64
2022/01/19 07:37:41;;;;;;;10.60;7.20;;;;;;;;;;8344915;28;20106;-64
2022/01/19 07:41:41;;;;;;;11.32;6.88;;;;;;;;;;8343748;28;20075;-65
2022/01/19 07:45:42;;;;;;;7.10;5.95;;;;;;;;;;8341623;28;20033;-65
2022/01/19 07:49:42;;;;;;;10.07;6.15;;;;;;;;;;8343669;28;20028;-65
2022/01/19 07:53:42;;;;;;;9.77;6.15;;;;;;;;;;8342594;28;20032;-65
2022/01/19 07:57:47;;;;;;;8.35;6.50;;;;;;;;;;8342667;28;20314;-65
2022/01/19 08:01:48;;;;;;;12.35;6.55;;;;;;;;;;8342690;28;20036;-65
2022/01/19 08:05:48;;;;;;;10.07;5.97;;;;;;;;;;8341392;28;20032;-64
2022/01/19 08:09:48;;;;;;;10.15;6.13;;;;;;;;;;8343371;28;20263;-65
2022/01/19 08:13:48;;;;;;;8.32;5.93;;;;;;;;;;8341738;28;20037;-65
2022/01/19 08:17:49;;;;;;;9.75;5.60;;;;;;;;;;8341014;28;20052;-65
2022/01/19 08:21:49;;;;;;;8.65;5.50;;;;;;;;;;8341544;28;20033;-64
2022/01/19 08:25:49;;;;;;;9.90;5.80;;;;;;;;;;8343186;28;20017;-65
2022/01/19 08:29:49;;;;;;;9.50;6.30;;;;;;;;;;8342205;28;20302;-65
2022/01/19 08:33:49;;;;;;;9.30;6.53;;;;;;;;;;8339993;28;21191;-65
2022/01/19 08:37:50;;;;;;;10.52;5.78;;;;;;;;;;8342545;28;20426;-65
2022/01/19 08:41:50;;;;;;;11.63;6.53;;;;;;;;;;8343949;28;20173;-64
2022/01/19 08:45:51;;;;;;;8.55;5.80;;;;;;;;;;8340032;28;20040;-65
2022/01/19 08:49:51;;;;;;;7.55;5.82;;;;;;;;;;8341560;28;20032;-65
2022/01/19 08:53:51;;;;;;;10.32;5.88;;;;;;;;;;8339380;28;20079;-65
2022/01/19 08:57:51;;;;;;;10.00;6.05;;;;;;;;;;8340167;28;20067;-65
2022/01/19 09:01:52;;;;;;;16.27;8.98;;;;;;;;;;8340671;28;20662;-65
2022/01/19 09:05:52;;;;;;;11.10;7.40;;;;;;;;;;8340882;28;20024;-65
2022/01/19 09:09:52;;;;;;;12.13;7.78;;;;;;;;;;8339699;28;20021;-65
2022/01/19 09:13:52;;;;;;;12.13;7.40;;;;;;;;;;8339291;28;20025;-65
2022/01/19 09:17:53;;;;;;;9.60;6.65;;;;;;;;;;8339224;28;20786;-65
2022/01/19 09:21:55;;;;;;;12.52;7.57;;;;;;;;;;8340065;28;20314;-64
2022/01/19 09:25:55;;;;;;;11.77;7.78;;;;;;;;;;8339306;28;20020;-65
2022/01/19 09:29:56;;;;;;;11.75;7.65;;;;;;;;;;8340926;28;20012;-67
2022/01/19 09:34:07;;;;;;;27.27;14.27;;;;;;;;;;8338951;28;20307;-65
2022/01/19 09:38:07;;;;;;;30.42;15.75;;;;;;;;;;8339730;28;20425;-65
2022/01/19 09:42:08;;;;;;;23.63;10.60;;;;;;;;;;8340254;28;20041;-65
2022/01/19 09:46:08;;;;;;;16.67;8.47;;;;;;;;;;8337656;28;20364;-65
2022/01/19 09:50:08;;;;;;;12.20;7.18;;;;;;;;;;8339219;28;20362;-65
2022/01/19 09:54:12;;;;;;;11.90;7.82;;;;;;;;;;8340678;28;20025;-65
2022/01/19 09:58:13;;;;;;;16.40;10.27;;;;;;;;;;8345903;28;21095;-65
2022/01/19 10:02:16;;;;;;;21.50;11.70;;;;;;;;;;8346357;28;20476;-65
2022/01/19 10:06:17;;;;;;;20.93;12.13;;;;;;;;;;8346229;28;20033;-65
2022/01/19 10:10:18;;;;;;;20.50;12.00;;;;;;;;;;8347213;28;20667;-65
2022/01/19 10:18:37;;;;;;;21.88;12.45;;;;;;;;;;8343934;28;20075;-65
2022/01/19 10:22:37;;;;;;;23.57;12.50;;;;;;;;;;8347550;28;20044;-65
2022/01/19 10:26:37;;;;;;;21.90;12.43;;;;;;;;;;8346148;28;20259;-65
2022/01/19 10:30:37;;;;;;;24.58;14.13;;;;;;;;;;8343209;28;20246;-65
2022/01/19 10:34:38;;;;;;;20.52;12.85;;;;;;;;;;8345669;28;20025;-65
2022/01/19 10:38:38;;;;;;;21.40;12.45;;;;;;;;;;8346006;28;20520;-65
2022/01/19 10:42:38;;;;;;;22.42;13.20;;;;;;;;;;8345194;28;20362;-65
2022/01/19 10:46:39;;;;;;;22.67;14.05;;;;;;;;;;8345502;28;20037;-65
2022/01/19 10:50:40;;;;;;;24.52;13.73;;;;;;;;;;8345260;28;20028;-65
2022/01/19 10:54:47;;;;;;;26.98;15.27;;;;;;;;;;8347198;28;20033;-65
2022/01/19 10:58:54;;;;;;;23.63;14.50;;;;;;;;;;8341627;28;20398;-65
2022/01/19 11:02:57;;;;;;;29.42;14.77;;;;;;;;;;8342635;28;20037;-65
2022/01/19 11:07:07;;;;;;;30.55;15.15;;;;;;;;;;8342526;28;20067;-65
2022/01/19 11:11:08;;;;;;;29.73;15.07;;;;;;;;;;8344746;28;20033;-65
2022/01/19 11:15:09;;;;;;;26.50;14.75;;;;;;;;;;8344032;28;20155;-65
2022/01/19 11:19:10;;;;;;;25.98;14.65;;;;;;;;;;8343813;28;20185;-64
2022/01/19 11:23:15;;;;;;;27.35;15.32;;;;;;;;;;8343240;28;20634;-67
2022/01/19 11:27:15;;;;;;;25.15;13.98;;;;;;;;;;8344243;28;20496;-65
2022/01/19 11:31:35;;;;;;;25.75;14.25;;;;;;;;;;8342028;28;20059;-64
2022/01/19 11:35:36;;;;;;;27.45;15.20;;;;;;;;;;8341229;28;20119;-65
2022/01/19 11:39:37;;;;;;;22.73;13.20;;;;;;;;;;8346228;28;20017;-65
2022/01/19 11:43:38;;;;;;;26.48;14.10;;;;;;;;;;8343806;28;20040;-65
2022/01/19 11:47:42;;;;;;;24.30;14.50;;;;;;;;;;8343499;28;20810;-65
2022/01/19 11:51:44;;;;;;;22.00;12.27;;;;;;;;;;8344041;28;20428;-65
2022/01/19 11:56:03;;;;;;;21.67;12.20;;;;;;;;;;8346149;28;20029;-65
2022/01/19 12:00:26;;;;;;;25.33;13.27;;;;;;;;;;8340247;28;20024;-66
2022/01/19 12:04:36;;;;;;;19.88;12.00;;;;;;;;;;8334540;28;20036;-65
2022/01/19 12:08:38;;;;;;;19.35;11.00;;;;;;;;;;8344361;28;20031;-65
2022/01/19 12:12:46;;;;;;;18.95;11.57;;;;;;;;;;8343192;28;20032;-65
2022/01/19 12:17:02;;;;;;;20.13;11.82;;;;;;;;;;8341736;28;20413;-64
2022/01/19 12:21:03;;;;;;;19.13;10.98;;;;;;;;;;8339704;28;20500;-64
2022/01/19 12:25:09;;;;;;;19.60;11.43;;;;;;;;;;8342338;28;20380;-65
2022/01/19 12:29:09;;;;;;;21.05;10.27;;;;;;;;;;8341363;28;20025;-64
2022/01/19 12:33:09;;;;;;;16.85;9.98;;;;;;;;;;8341691;28;20135;-64
2022/01/19 12:37:10;;;;;;;18.55;9.15;;;;;;;;;;8343076;28;20056;-65
2022/01/19 12:41:10;;;;;;;17.23;10.10;;;;;;;;;;8341856;28;20036;-64
2022/01/19 12:45:25;;;;;;;16.65;9.93;;;;;;;;;;8340872;28;20244;-65
2022/01/19 12:49:25;;;;;;;;;;;;;;;;;;8343286;28;20020;-65
2022/01/19 12:53:25;;;;;;;17.58;9.20;;;;;;;;;;8342233;28;20417;-65
2022/01/19 12:57:28;;;;;;;18.55;10.25;;;;;;;;;;8343039;28;20028;-65
2022/01/19 13:01:30;;;;;;;20.13;10.95;;;;;;;;;;8341885;28;20601;-65
2022/01/19 13:05:31;;;;;;;21.30;11.30;;;;;;;;;;8339485;28;20025;-65
2022/01/19 13:09:37;;;;;;;21.95;10.77;;;;;;;;;;8342212;28;20422;-65
2022/01/19 13:13:47;;;;;;;18.45;10.48;;;;;;;;;;8340772;28;20021;-65
2022/01/19 13:17:49;;;;;;;16.33;9.45;;;;;;;;;;8341084;28;20041;-65
2022/01/19 13:21:50;;;;;;;15.35;9.23;;;;;;;;;;8341607;28;20036;-65
2022/01/19 13:25:58;;;;;;;16.92;8.68;;;;;;;;;;8341552;28;20024;-65
2022/01/19 13:29:58;;;;;;;15.27;8.43;;;;;;;;;;8341123;28;20468;-65
2022/01/19 13:34:00;;;;;;;15.60;8.20;;;;;;;;;;8348093;28;20145;-65
2022/01/19 13:38:08;;;;;;;15.77;8.80;;;;;;;;;;8347861;28;20449;-65
2022/01/19 13:42:08;;;;;;;20.80;10.38;;;;;;;;;;8349220;28;20139;-65
2022/01/19 13:46:17;;;;;;;16.90;9.73;;;;;;;;;;8347695;28;20040;-65
2022/01/19 13:50:18;;;;;;;17.35;10.07;;;;;;;;;;8347783;28;20031;-65
2022/01/19 13:54:19;;;;;;;20.48;11.43;;;;;;;;;;8348217;28;20377;-65
2022/01/19 13:58:19;;;;;;;20.83;11.30;;;;;;;;;;8344404;28;20039;-65
2022/01/19 14:02:20;;;;;;;22.05;12.07;;;;;;;;;;8344592;28;20056;-65
2022/01/19 14:06:33;;;;;;;22.00;13.00;;;;;;;;;;8343964;28;20032;-64
2022/01/19 14:10:39;;;;;;;20.92;11.50;;;;;;;;;;8342795;28;20075;-65
2022/01/19 14:14:42;;;;;;;20.55;11.38;;;;;;;;;;8348826;28;20116;-65
2022/01/19 14:18:42;;;;;;;19.48;11.75;;;;;;;;;;8348153;28;20044;-65
2022/01/19 14:22:42;;;;;;;21.67;11.50;;;;;;;;;;8346440;28;20111;-65
2022/01/19 14:27:11;;;;;;;23.25;11.75;;;;;;;;;;8348294;28;20017;-65
2022/01/19 14:31:14;;;;;;;19.88;11.20;;;;;;;;;;8342636;28;20453;-65
2022/01/19 14:35:18;;;;;;;25.30;12.25;;;;;;;;;;8347583;28;20152;-65
2022/01/19 14:39:18;;;;;;;23.63;13.23;;;;;;;;;;8348370;28;20101;-65
2022/01/19 14:43:19;;;;;;;19.92;11.68;;;;;;;;;;8341971;28;21092;-65
2022/01/19 14:47:36;;;;;;;24.00;12.38;;;;;;;;;;8345951;28;20040;-65
2022/01/19 14:51:39;;;;;;;30.35;14.40;;;;;;;;;;8349481;28;20109;-65
2022/01/19 14:55:40;;;;;;;25.95;12.07;;;;;;;;;;8347981;28;20086;-65
2022/01/19 14:59:40;;;;;;;29.30;14.60;;;;;;;;;;8346669;28;20090;-65
2022/01/19 15:03:41;;;;;;;26.83;13.32;;;;;;;;;;8345513;28;20154;-65
2022/01/19 15:07:41;;;;;;;21.47;12.20;;;;;;;;;;8347892;28;20086;-64
2022/01/19 15:11:42;;;;;;;26.00;12.27;;;;;;;;;;8346857;28;20291;-64
2022/01/19 15:15:42;;;;;;;28.73;14.75;;;;;;;;;;8343024;28;20590;-65
2022/01/19 15:19:43;;;;;;;26.60;12.05;;;;;;;;;;8345051;28;20033;-66
2022/01/19 15:23:44;;;;;;;27.08;13.48;;;;;;;;;;8347333;28;20073;-65
2022/01/19 15:27:45;;;;;;;27.83;13.20;;;;;;;;;;8348328;28;20028;-64
2022/01/19 15:31:48;;;;;;;24.88;12.32;;;;;;;;;;8346702;28;20047;-65
2022/01/19 15:35:49;;;;;;;21.83;11.88;;;;;;;;;;8346681;28;20498;-65
2022/01/19 15:39:52;;;;;;;21.45;11.55;;;;;;;;;;8346872;28;20063;-65
2022/01/19 15:43:52;;;;;;;20.88;11.05;;;;;;;;;;8346615;28;20020;-65
2022/01/19 15:47:52;;;;;;;23.60;11.90;;;;;;;;;;8347225;28;20079;-65
2022/01/19 15:51:52;;;;;;;21.83;11.27;;;;;;;;;;8345758;28;20020;-64
2022/01/19 15:55:55;;;;;;;22.77;11.90;;;;;;;;;;8345979;28;20021;-65
2022/01/19 15:59:56;;;;;;;19.75;10.50;;;;;;;;;;8345980;28;20299;-65
2022/01/19 16:03:56;;;;;;;18.73;9.85;;;;;;;;;;8345143;28;20033;-64
2022/01/19 16:07:56;;;;;;;18.65;10.20;;;;;;;;;;8347161;28;20638;-64
2022/01/19 16:11:57;;;;;;;14.75;8.93;;;;;;;;;;8344904;28;20143;-65
2022/01/19 16:15:57;;;;;;;16.45;9.30;;;;;;;;;;8344557;28;20029;-65
2022/01/19 16:19:57;;;;;;;16.87;9.77;;;;;;;;;;8343097;28;20021;-64
2022/01/19 16:28:17;;;;;;;16.52;8.93;;;;;;;;;;8342692;28;20063;-65
2022/01/19 16:32:19;;;;;;;14.52;8.75;;;;;;;;;;8336450;28;20491;-64
2022/01/19 16:36:20;;;;;;;12.00;7.35;;;;;;;;;;8344398;28;20270;-64
2022/01/19 16:40:20;;;;;;;13.00;7.60;;;;;;;;;;8345896;28;20032;-64
2022/01/19 16:44:20;;;;;;;11.65;6.75;;;;;;;;;;8343595;28;20033;-64
2022/01/19 16:48:21;;;;;;;12.00;7.30;;;;;;;;;;8341086;28;20713;-64
2022/01/19 16:52:22;;;;;;;9.90;6.45;;;;;;;;;;8346069;28;20036;-64
2022/01/19 16:56:22;;;;;;;16.17;8.23;;;;;;;;;;8343465;28;20036;-64
2022/01/19 17:00:24;;;;;;;11.40;6.90;;;;;;;;;;8346905;28;20040;-64
2022/01/19 17:04:24;;;;;;;11.13;6.78;;;;;;;;;;8342296;28;20901;-64
2022/01/19 17:08:24;;;;;;;12.77;7.20;;;;;;;;;;8346599;28;20025;-65
2022/01/19 17:12:30;;;;;;;10.13;6.53;;;;;;;;;;8343778;28;20060;-64
2022/01/19 17:20:35;;;;;;;11.40;6.72;;;;;;;;;;8343798;28;20071;-64
2022/01/19 17:24:35;;;;;;;;;;;;;;;;;;8345389;28;20017;-64
2022/01/19 17:28:35;;;;;;;9.65;6.18;;;;;;;;;;8341209;28;19919;-64
2022/01/19 17:32:36;;;;;;;12.50;6.13;;;;;;;;;;8343244;28;20042;-64
2022/01/19 17:36:36;;;;;;;9.15;6.30;;;;;;;;;;8356578;28;20275;-64
2022/01/19 17:40:38;;;;;;;9.32;6.65;;;;;;;;;;8343636;28;20025;-64
2022/01/19 17:44:39;;;;;;;10.43;7.00;;;;;;;;;;8343732;28;20133;-64
2022/01/19 17:48:51;;;;;;;10.75;6.72;;;;;;;;;;8343107;28;21007;-64
2022/01/19 17:52:51;;;;;;;8.43;5.53;;;;;;;;;;8344386;28;20035;-64
2022/01/19 17:56:51;;;;;;;12.95;6.43;;;;;;;;;;8342248;28;20025;-64
2022/01/19 18:00:52;;;;;;;10.77;7.07;;;;;;;;;;8341933;28;20043;-64
2022/01/19 18:04:52;;;;;;;10.40;6.78;;;;;;;;;;8342225;28;20290;-64
2022/01/19 18:08:52;;;;;;;9.30;6.47;;;;;;;;;;8344601;28;20024;-64
2022/01/19 18:12:53;;;;;;;12.05;5.88;;;;;;;;;;8344419;28;20118;-64
2022/01/19 18:16:53;;;;;;;10.43;6.63;;;;;;;;;;8340867;28;20186;-64
2022/01/19 18:20:54;;;;;;;12.47;7.23;;;;;;;;;;8348159;28;20576;-65
2022/01/19 18:24:54;;;;;;;10.75;6.72;;;;;;;;;;8348325;28;20287;-65
2022/01/19 18:28:55;;;;;;;9.70;6.82;;;;;;;;;;8349547;28;20014;-64
2022/01/19 18:32:55;;;;;;;10.80;7.55;;;;;;;;;;8348854;28;20126;-64
2022/01/19 18:36:55;;;;;;;12.00;7.85;;;;;;;;;;8349583;28;20021;-65
2022/01/19 18:40:56;;;;;;;10.40;7.50;;;;;;;;;;8348933;28;20048;-65
2022/01/19 18:44:57;;;;;;;10.30;7.00;;;;;;;;;;8348936;28;20107;-64
2022/01/19 18:48:57;;;;;;;12.03;8.67;;;;;;;;;;8347613;28;20035;-64
2022/01/19 18:52:57;;;;;;;11.60;8.07;;;;;;;;;;8347976;28;20262;-64
2022/01/19 18:56:58;;;;;;;11.13;7.70;;;;;;;;;;8347230;28;20898;-65
2022/01/19 19:01:03;;;;;;;11.05;7.78;;;;;;;;;;8347790;28;20127;-65
2022/01/19 19:05:04;;;;;;;11.23;7.60;;;;;;;;;;8347138;28;20059;-64
2022/01/19 19:09:05;;;;;;;15.35;9.45;;;;;;;;;;8347591;28;20025;-64
2022/01/19 19:13:06;;;;;;;12.55;8.55;;;;;;;;;;8347242;28;20960;-66
2022/01/19 19:17:06;;;;;;;14.35;9.38;;;;;;;;;;8344411;28;20032;-65
2022/01/19 19:21:06;;;;;;;16.73;8.38;;;;;;;;;;8345464;28;20025;-64
2022/01/19 19:25:07;;;;;;;14.07;10.47;;;;;;;;;;8347823;28;20032;-64
2022/01/19 19:29:07;;;;;;;9.40;7.57;;;;;;;;;;8346460;28;20259;-64
2022/01/19 19:33:07;;;;;;;10.48;8.02;;;;;;;;;;8347380;28;20037;-65
2022/01/19 19:37:08;;;;;;;12.52;9.00;;;;;;;;;;8347960;28;21001;-64
2022/01/19 19:41:09;;;;;;;12.65;8.32;;;;;;;;;;8347853;28;20055;-64
2022/01/19 19:45:10;;;;;;;10.02;7.50;;;;;;;;;;8347022;28;20502;-65
2022/01/19 19:49:10;;;;;;;10.82;7.75;;;;;;;;;;8362579;28;20117;-64
2022/01/19 19:53:12;;;;;;;10.80;7.68;;;;;;;;;;8348505;28;20843;-64
2022/01/19 19:57:12;;;;;;;10.05;8.38;;;;;;;;;;8348326;28;20021;-65
2022/01/19 20:01:12;;;;;;;10.20;7.97;;;;;;;;;;8345364;28;20677;-65
2022/01/19 20:05:12;;;;;;;13.32;8.30;;;;;;;;;;8345457;28;20020;-64
2022/01/19 20:09:13;;;;;;;11.48;8.38;;;;;;;;;;8345326;28;20016;-64
2022/01/19 20:13:13;;;;;;;10.93;8.05;;;;;;;;;;8346694;28;20025;-67
2022/01/19 20:17:16;;;;;;;10.80;8.20;;;;;;;;;;8343931;28;20048;-64
2022/01/19 20:21:18;;;;;;;10.57;8.00;;;;;;;;;;8344941;28;20056;-65
2022/01/19 20:25:19;;;;;;;10.23;7.82;;;;;;;;;;8345215;28;20033;-64
2022/01/19 20:29:19;;;;;;;9.40;6.82;;;;;;;;;;8342675;28;20025;-64
2022/01/19 20:33:19;;;;;;;10.05;6.90;;;;;;;;;;8342666;28;20041;-64
2022/01/19 20:37:19;;;;;;;6.47;5.68;;;;;;;;;;8346054;28;20040;-64
2022/01/19 20:41:20;;;;;;;6.45;5.25;;;;;;;;;;8345696;28;20021;-64
2022/01/19 20:45:21;;;;;;;9.60;6.18;;;;;;;;;;8344945;28;20032;-65
2022/01/19 20:49:22;;;;;;;8.85;5.60;;;;;;;;;;8345976;28;20047;-65
2022/01/19 20:53:23;;;;;;;6.75;5.53;;;;;;;;;;8346591;28;20028;-65
2022/01/19 20:57:23;;;;;;;5.63;4.70;;;;;;;;;;8343984;28;20037;-65
2022/01/19 21:01:25;;;;;;;5.00;3.90;;;;;;;;;;8343545;28;20040;-65
2022/01/19 21:05:25;;;;;;;5.35;4.15;;;;;;;;;;8343119;28;20037;-64
2022/01/19 21:09:26;;;;;;;4.30;3.88;;;;;;;;;;8344815;28;20592;-64
2022/01/19 21:13:26;;;;;;;4.53;3.75;;;;;;;;;;8344125;28;20044;-64
2022/01/19 21:17:26;;;;;;;4.65;3.78;;;;;;;;;;8344443;28;20158;-64
2022/01/19 21:21:27;;;;;;;5.47;3.70;;;;;;;;;;8342240;28;20036;-64
2022/01/19 21:25:27;;;;;;;2.70;2.50;;;;;;;;;;8344930;28;20033;-64
2022/01/19 21:29:28;;;;;;;3.70;3.05;;;;;;;;;;8341949;28;20037;-64
2022/01/19 21:33:28;;;;;;;5.55;3.40;;;;;;;;;;8342439;28;21064;-64
2022/01/19 21:37:29;;;;;;;3.20;2.80;;;;;;;;;;8345301;28;20370;-64
2022/01/19 21:41:30;;;;;;;4.13;2.97;;;;;;;;;;8343586;28;20029;-65
2022/01/19 21:45:33;;;;;;;4.03;3.00;;;;;;;;;;8343171;28;20588;-64
2022/01/19 21:49:33;;;;;;;3.67;2.92;;;;;;;;;;8343407;28;20032;-65
2022/01/19 21:53:33;;;;;;;3.45;3.10;;;;;;;;;;8345991;28;20526;-64
2022/01/19 21:57:34;;;;;;;3.53;2.72;;;;;;;;;;8349289;28;20025;-64
2022/01/19 22:01:34;;;;;;;3.50;2.78;;;;;;;;;;8349822;28;20131;-64
2022/01/19 22:05:35;;;;;;;2.88;2.55;;;;;;;;;;8349454;28;20033;-64
2022/01/19 22:09:35;;;;;;;3.05;2.75;;;;;;;;;;8350144;28;20039;-64
2022/01/19 22:13:35;;;;;;;2.80;2.60;;;;;;;;;;8348313;28;20032;-64
2022/01/19 22:17:35;;;;;;;3.83;2.33;;;;;;;;;;8347841;28;20283;-64
2022/01/19 22:21:36;;;;;;;2.78;2.47;;;;;;;;;;8345140;28;20094;-64
2022/01/19 22:25:36;;;;;;;3.22;2.65;;;;;;;;;;8348935;28;20032;-64
2022/01/19 22:29:37;;;;;;;2.90;2.40;;;;;;;;;;8347611;28;20031;-64
2022/01/19 22:33:37;;;;;;;2.78;2.42;;;;;;;;;;8345297;28;20675;-64
2022/01/19 22:37:37;;;;;;;2.45;2.25;;;;;;;;;;8348096;28;20035;-64
2022/01/19 22:41:38;;;;;;;2.90;2.70;;;;;;;;;;8348392;28;20037;-65
2022/01/19 22:45:38;;;;;;;2.50;2.30;;;;;;;;;;8347302;28;20067;-64
2022/01/19 22:49:38;;;;;;;2.70;2.50;;;;;;;;;;8349267;28;20035;-64
2022/01/19 22:53:39;;;;;;;2.90;2.70;;;;;;;;;;8347976;28;20028;-65
2022/01/19 22:57:40;;;;;;;2.83;2.63;;;;;;;;;;8347733;28;20664;-65
2022/01/19 23:01:40;;;;;;;2.63;2.35;;;;;;;;;;8344784;28;20125;-64
2022/01/19 23:05:40;;;;;;;1.90;1.80;;;;;;;;;;8345295;28;20033;-65
2022/01/19 23:09:41;;;;;;;2.10;1.90;;;;;;;;;;8347397;28;20112;-65
2022/01/19 23:13:44;;;;;;;2.33;2.13;;;;;;;;;;8348419;28;20190;-64
2022/01/19 23:17:44;;;;;;;3.05;2.40;;;;;;;;;;8350495;28;20037;-64
2022/01/19 23:21:45;;;;;;;2.25;2.05;;;;;;;;;;8349269;28;20049;-64
2022/01/19 23:25:46;;;;;;;2.20;1.90;;;;;;;;;;8349541;28;20040;-64
2022/01/19 23:29:46;;;;;;;2.30;2.10;;;;;;;;;;8347597;28;20013;-64
2022/01/19 23:33:46;;;;;;;2.25;2.03;;;;;;;;;;8347579;28;20562;-64
2022/01/19 23:51:03;;;;;;;2.65;2.03;;;;;;;;;;8349941;28;20142;-64
2022/01/19 23:55:03;;;;;;;2.25;2.05;;;;;;;;;;8351788;28;20552;-64
2022/01/19 23:59:05;;;;;;;2.75;2.30;;;;;;;;;;8345712;28;20271;-64
